Time,TemperatureF,DewpointF,PressureIn,WindDirection,WindDirectionDegrees,WindSpeedMPH,WindSpeedGustMPH,Humidity,HourlyPrecipIn,Conditions,Clouds,dailyrainin,SoftwareType,DateUTC
2013-03-07 00:02:00,39.4,38.9,29.90,NW,315,0.0,-999.0,98,-99.99,,,0.00,Acu-Link.com,2013-03-07 08:02:00,
2013-03-07 00:17:00,38.8,38.3,29.92,NE,45,0.0,-999.0,98,-99.99,,,0.00,Acu-Link.com,2013-03-07 08:17:00,
2013-03-07 00:32:00,38.3,37.8,29.92,West,270,0.0,-999.0,98,-99.99,,,0.00,Acu-Link.com,2013-03-07 08:32:00,
2013-03-07 00:48:00,37.9,37.4,29.91,NNE,22,0.0,-999.0,98,-99.99,,,0.00,Acu-Link.com,2013-03-07 08:48:00,
2013-03-07 01:03:00,37.4,36.9,29.91,ESE,112,0.0,-999.0,98,-99.99,,,0.00,Acu-Link.com,2013-03-07 09:03:00,
2013-03-07 01:18:00,37.2,36.7,29.92,NE,45,0.0,-999.0,98,-99.99,,,0.00,Acu-Link.com,2013-03-07 09:18:00,
2013-03-07 01:33:00,37.8,37.3,29.92,East,90,0.0,-999.0,98,-99.99,,,0.00,Acu-Link.com,2013-03-07 09:33:00,
2013-03-07 01:49:00,37.8,37.3,29.91,WNW,292,0.0,-999.0,98,-99.99,,,0.00,Acu-Link.com,2013-03-07 09:49:00,
2013-03-07 02:04:00,37.6,37.1,29.92,West,270,0.0,-999.0,98,-99.99,,,0.00,Acu-Link.com,2013-03-07 10:04:00,
2013-03-07 02:19:00,36.7,36.2,29.92,ESE,112,1.7,-999.0,98,-99.99,,,0.00,Acu-Link.com,2013-03-07 10:19:00,
2013-03-07 02:34:00,36.5,36.0,29.92,West,270,0.0,-999.0,98,-99.99,,,0.00,Acu-Link.com,2013-03-07 10:34:00,
2013-03-07 02:50:00,35.6,34.6,29.90,ESE,112,1.7,-999.0,96,-99.99,,,0.00,Acu-Link.com,2013-03-07 10:50:00,
2013-03-07 03:05:00,35.8,35.3,29.89,SSE,157,0.0,-999.0,98,-99.99,,,0.00,Acu-Link.com,2013-03-07 11:05:00,
2013-03-07 03:20:00,35.4,34.9,29.90,ESE,112,0.0,-999.0,98,-99.99,,,0.00,Acu-Link.com,2013-03-07 11:20:00,
2013-03-07 03:35:00,35.4,34.9,29.91,ENE,67,0.0,-999.0,98,-99.99,,,0.00,Acu-Link.com,2013-03-07 11:35:00,
2013-03-07 03:50:00,35.1,34.6,29.91,ESE,112,0.0,-999.0,98,-99.99,,,0.00,Acu-Link.com,2013-03-07 11:50:00,
2013-03-07 04:06:00,34.5,34.0,29.91,East,90,0.0,-999.0,98,-99.99,,,0.00,Acu-Link.com,2013-03-07 12:06:00,
2013-03-07 04:21:00,34.2,33.7,29.91,East,90,0.0,-999.0,98,-99.99,,,0.00,Acu-Link.com,2013-03-07 12:21:00,
2013-03-07 04:36:00,34.0,33.5,29.91,NE,45,0.0,-999.0,98,-99.99,,,0.00,Acu-Link.com,2013-03-07 12:36:00,
2013-03-07 04:51:00,33.4,32.4,29.92,NNE,22,0.0,-999.0,96,-99.99,,,0.00,Acu-Link.com,2013-03-07 12:51:00,
2013-03-07 05:07:00,33.3,32.3,29.93,ESE,112,0.0,-999.0,96,-99.99,,,0.00,Acu-Link.com,2013-03-07 13:07:00,
2013-03-07 05:22:00,32.9,31.9,29.93,ENE,67,0.0,-999.0,96,-99.99,,,0.00,Acu-Link.com,2013-03-07 13:22:00,
2013-03-07 05:37:00,33.1,32.6,29.93,ESE,112,0.0,-999.0,98,-99.99,,,0.00,Acu-Link.com,2013-03-07 13:37:00,
2013-03-07 05:53:00,33.1,32.6,29.93,East,90,0.0,-999.0,98,-99.99,,,0.00,Acu-Link.com,2013-03-07 13:53:00,
2013-03-07 06:08:00,32.7,31.7,29.94,ESE,112,0.0,-999.0,96,-99.99,,,0.00,Acu-Link.com,2013-03-07 14:08:00,
2013-03-07 06:23:00,32.5,31.5,29.94,SW,225,0.0,-999.0,96,-99.99,,,0.00,Acu-Link.com,2013-03-07 14:23:00,
2013-03-07 06:38:00,32.0,31.0,29.93,ESE,112,0.0,-999.0,96,-99.99,,,0.00,Acu-Link.com,2013-03-07 14:38:00,
2013-03-07 06:54:00,32.2,31.2,29.93,NW,315,0.0,-999.0,96,-99.99,,,0.00,Acu-Link.com,2013-03-07 14:54:00,
2013-03-07 07:09:00,32.9,32.4,29.92,ESE,112,0.0,-999.0,98,-99.99,,,0.00,Acu-Link.com,2013-03-07 15:09:00,
2013-03-07 07:24:00,34.0,33.5,29.92,NW,315,0.0,-999.0,98,-99.99,,,0.00,Acu-Link.com,2013-03-07 15:24:00,
2013-03-07 07:40:00,34.5,34.0,29.95,SW,225,1.7,-999.0,98,-99.99,,,0.00,Acu-Link.com,2013-03-07 15:40:00,
2013-03-07 07:55:00,35.1,34.6,29.96,WSW,247,0.0,-999.0,98,-99.99,,,0.00,Acu-Link.com,2013-03-07 15:55:00,
2013-03-07 08:10:00,35.8,35.3,29.95,WSW,247,2.2,-999.0,98,-99.99,,,0.00,Acu-Link.com,2013-03-07 16:10:00,
2013-03-07 08:26:00,36.7,36.2,29.96,West,270,0.0,-999.0,98,-99.99,,,0.00,Acu-Link.com,2013-03-07 16:26:00,
2013-03-07 08:41:00,37.0,36.5,29.96,WNW,292,0.0,-999.0,98,-99.99,,,0.00,Acu-Link.com,2013-03-07 16:41:00,
2013-03-07 08:56:00,38.3,37.8,29.97,SW,225,0.0,-999.0,98,-99.99,,,0.00,Acu-Link.com,2013-03-07 16:56:00,
2013-03-07 09:11:00,39.9,37.8,29.97,West,270,0.0,-999.0,92,-99.99,,,0.00,Acu-Link.com,2013-03-07 17:11:00,
2013-03-07 09:26:00,41.0,38.0,29.98,SW,225,1.7,-999.0,89,-99.99,,,0.00,Acu-Link.com,2013-03-07 17:26:00,
2013-03-07 09:42:00,43.2,40.5,29.97,SW,225,4.2,-999.0,90,-99.99,,,0.01,Acu-Link.com,2013-03-07 17:42:00,
2013-03-07 09:57:00,43.9,40.6,29.97,SW,225,1.7,-999.0,88,-99.99,,,0.01,Acu-Link.com,2013-03-07 17:57:00,
2013-03-07 10:12:00,44.8,41.2,29.98,SW,225,2.2,-999.0,87,-99.99,,,0.01,Acu-Link.com,2013-03-07 18:12:00,
2013-03-07 10:28:00,46.8,42.8,29.97,ESE,112,2.2,-999.0,86,-99.99,,,0.01,Acu-Link.com,2013-03-07 18:28:00,
2013-03-07 10:43:00,48.0,43.1,29.96,West,270,2.2,-999.0,83,-99.99,,,0.01,Acu-Link.com,2013-03-07 18:43:00,
2013-03-07 10:58:00,49.6,43.7,29.96,West,270,3.7,-999.0,80,-99.99,,,0.01,Acu-Link.com,2013-03-07 18:58:00,
2013-03-07 11:14:00,51.1,45.1,29.95,SW,225,2.7,-999.0,80,-99.99,,,0.01,Acu-Link.com,2013-03-07 19:14:00,
2013-03-07 11:29:00,52.0,44.7,29.95,SW,225,4.2,-999.0,76,-99.99,,,0.01,Acu-Link.com,2013-03-07 19:29:00,
2013-03-07 11:44:00,53.6,43.3,29.95,SW,225,2.2,-999.0,68,-99.99,,,0.01,Acu-Link.com,2013-03-07 19:44:00,
2013-03-07 12:15:00,55.6,43.6,29.94,WNW,292,1.7,-999.0,64,-99.99,,,0.01,Acu-Link.com,2013-03-07 20:15:00,
2013-03-07 12:30:00,55.2,42.8,29.94,West,270,4.7,-999.0,63,-99.99,,,0.01,Acu-Link.com,2013-03-07 20:30:00,
2013-03-07 12:45:00,56.5,43.6,29.94,WSW,247,2.7,-999.0,62,-99.99,,,0.01,Acu-Link.com,2013-03-07 20:45:00,
2013-03-07 13:00:00,56.5,43.2,29.94,SW,225,4.7,-999.0,61,-99.99,,,0.01,Acu-Link.com,2013-03-07 21:00:00,
2013-03-07 13:15:00,55.0,40.9,29.93,NNW,337,2.2,-999.0,59,-99.99,,,0.01,Acu-Link.com,2013-03-07 21:15:00,
2013-03-07 13:46:00,55.0,39.6,29.93,WSW,247,4.7,-999.0,56,-99.99,,,0.01,Acu-Link.com,2013-03-07 21:46:00,
2013-03-07 14:01:00,53.6,43.3,29.92,NW,315,6.3,-999.0,68,-99.99,,,0.01,Acu-Link.com,2013-03-07 22:01:00,
2013-03-07 14:17:00,54.0,43.3,29.93,WNW,292,4.7,-999.0,67,-99.99,,,0.01,Acu-Link.com,2013-03-07 22:17:00,
2013-03-07 14:32:00,55.8,43.8,29.93,NNW,337,6.8,-999.0,64,-99.99,,,0.01,Acu-Link.com,2013-03-07 22:32:00,
2013-03-07 14:47:00,52.2,41.2,29.93,NNE,22,4.2,-999.0,66,-99.99,,,0.01,Acu-Link.com,2013-03-07 22:47:00,
2013-03-07 15:02:00,51.6,41.4,29.94,WNW,292,1.7,-999.0,68,-99.99,,,0.01,Acu-Link.com,2013-03-07 23:02:00,
2013-03-07 15:17:00,54.0,42.9,29.93,WNW,292,5.3,-999.0,66,-99.99,,,0.01,Acu-Link.com,2013-03-07 23:17:00,
2013-03-07 15:32:00,53.4,42.3,29.94,NNE,22,4.2,-999.0,66,-99.99,,,0.01,Acu-Link.com,2013-03-07 23:32:00,
2013-03-07 15:48:00,53.6,41.7,29.93,NNW,337,4.2,-999.0,64,-99.99,,,0.01,Acu-Link.com,2013-03-07 23:48:00,
2013-03-07 16:03:00,53.1,42.0,29.93,West,270,3.7,-999.0,66,-99.99,,,0.01,Acu-Link.com,2013-03-08 00:03:00,
2013-03-07 16:18:00,52.9,41.1,29.93,WNW,292,3.7,-999.0,64,-99.99,,,0.01,Acu-Link.com,2013-03-08 00:18:00,
2013-03-07 16:34:00,53.1,40.4,29.93,NE,45,4.2,-999.0,62,-99.99,,,0.01,Acu-Link.com,2013-03-08 00:34:00,
2013-03-07 16:49:00,52.3,39.7,29.92,NNE,22,5.3,-999.0,62,-99.99,,,0.01,Acu-Link.com,2013-03-08 00:49:00,
2013-03-07 17:04:00,52.0,40.2,29.92,NW,315,4.2,-999.0,64,-99.99,,,0.01,Acu-Link.com,2013-03-08 01:04:00,
2013-03-07 17:19:00,52.3,40.5,29.92,NNE,22,3.2,-999.0,64,-99.99,,,0.01,Acu-Link.com,2013-03-08 01:19:00,
2013-03-07 17:35:00,52.2,40.0,29.92,NW,315,2.7,-999.0,63,-99.99,,,0.01,Acu-Link.com,2013-03-08 01:35:00,
2013-03-07 17:50:00,51.4,39.6,29.94,WNW,292,1.7,-999.0,64,-99.99,,,0.01,Acu-Link.com,2013-03-08 01:50:00,
2013-03-07 18:05:00,49.8,40.0,29.93,NE,45,0.0,-999.0,69,-99.99,,,0.01,Acu-Link.com,2013-03-08 02:05:00,
2013-03-07 18:20:00,47.3,40.5,29.93,East,90,0.0,-999.0,77,-99.99,,,0.01,Acu-Link.com,2013-03-08 02:20:00,
2013-03-07 18:35:00,45.1,40.3,29.95,ESE,112,0.0,-999.0,83,-99.99,,,0.01,Acu-Link.com,2013-03-08 02:35:00,
2013-03-07 18:51:00,43.2,39.0,29.93,ESE,112,0.0,-999.0,85,-99.99,,,0.01,Acu-Link.com,2013-03-08 02:51:00,
2013-03-07 19:06:00,41.9,38.6,29.93,ENE,67,1.7,-999.0,88,-99.99,,,0.01,Acu-Link.com,2013-03-08 03:06:00,
2013-03-07 19:21:00,41.2,38.2,29.93,East,90,0.0,-999.0,89,-99.99,,,0.01,Acu-Link.com,2013-03-08 03:21:00,
2013-03-07 19:37:00,40.6,37.6,29.93,West,270,0.0,-999.0,89,-99.99,,,0.01,Acu-Link.com,2013-03-08 03:37:00,
2013-03-07 19:52:00,39.7,37.0,29.94,ESE,112,0.0,-999.0,90,-99.99,,,0.01,Acu-Link.com,2013-03-08 03:52:00,
2013-03-07 20:07:00,39.0,36.6,29.94,ESE,112,0.0,-999.0,91,-99.99,,,0.01,Acu-Link.com,2013-03-08 04:07:00,
2013-03-07 20:23:00,38.3,36.2,29.95,ENE,67,0.0,-999.0,92,-99.99,,,0.01,Acu-Link.com,2013-03-08 04:23:00,
2013-03-07 20:38:00,37.9,35.8,29.95,ESE,112,0.0,-999.0,92,-99.99,,,0.01,Acu-Link.com,2013-03-08 04:38:00,
2013-03-07 20:53:00,37.4,35.6,29.93,ESE,112,0.0,-999.0,93,-99.99,,,0.01,Acu-Link.com,2013-03-08 04:53:00,
2013-03-07 21:08:00,36.9,34.8,29.93,NE,45,0.0,-999.0,92,-99.99,,,0.01,Acu-Link.com,2013-03-08 05:08:00,
2013-03-07 21:23:00,36.5,34.4,29.94,ENE,67,0.0,-999.0,92,-99.99,,,0.01,Acu-Link.com,2013-03-08 05:23:00,
2013-03-07 21:39:00,36.1,34.3,29.93,ESE,112,0.0,-999.0,93,-99.99,,,0.01,Acu-Link.com,2013-03-08 05:39:00,
2013-03-07 21:54:00,36.0,34.4,29.94,ESE,112,0.0,-999.0,94,-99.99,,,0.01,Acu-Link.com,2013-03-08 05:54:00,
2013-03-07 22:09:00,36.0,34.4,29.94,NNE,22,0.0,-999.0,94,-99.99,,,0.01,Acu-Link.com,2013-03-08 06:09:00,
2013-03-07 22:25:00,35.2,33.6,29.94,ESE,112,0.0,-999.0,94,-99.99,,,0.01,Acu-Link.com,2013-03-08 06:25:00,
2013-03-07 22:40:00,35.1,33.6,29.93,East,90,0.0,-999.0,94,-99.99,,,0.01,Acu-Link.com,2013-03-08 06:40:00,
2013-03-07 22:55:00,35.6,34.3,29.94,SSE,157,0.0,-999.0,95,-99.99,,,0.01,Acu-Link.com,2013-03-08 06:55:00,
2013-03-07 23:11:00,34.7,33.4,29.95,WSW,247,0.0,-999.0,95,-99.99,,,0.01,Acu-Link.com,2013-03-08 07:11:00,
2013-03-07 23:26:00,33.8,32.3,29.94,ESE,112,0.0,-999.0,94,-99.99,,,0.01,Acu-Link.com,2013-03-08 07:26:00,
2013-03-07 23:41:00,33.8,32.3,29.94,WNW,292,0.0,-999.0,94,-99.99,,,0.01,Acu-Link.com,2013-03-08 07:41:00,
2013-03-07 23:56:00,34.5,33.2,29.94,ESE,112,0.0,-999.0,95,-99.99,,,0.01,Acu-Link.com,2013-03-08 07:56:00,